Time;durP1;ratioP1;P1;durP2;ratioP2;P2;SDS_P1;SDS_P2;PMS_P1;PMS_P2;Temp;Humidity;BMP_temperature;BMP_pressure;BME280_temperature;BME280_humidity;BME280_pressure;Samples;Min_cycle;Max_cycle;Signal;HPM_P1;HPM_P2
2022/10/27 00:00:35;;;;;;;2.97;2.35;;;13.10;97.70;;;;;;4914391;29;20045;-73
2022/10/27 00:03:02;;;;;;;3.80;2.60;;;13.10;97.60;;;;;;4913760;29;20040;-73
2022/10/27 00:05:28;;;;;;;3.72;2.53;;;13.10;97.60;;;;;;4911480;29;20032;-73
2022/10/27 00:07:54;;;;;;;3.65;2.60;;;13.10;97.70;;;;;;4914415;29;20437;-72
2022/10/27 00:10:20;;;;;;;2.55;2.35;;;13.20;97.80;;;;;;4912545;29;20032;-73
2022/10/27 00:12:46;;;;;;;4.22;2.85;;;13.10;97.90;;;;;;4914262;29;20106;-72
2022/10/27 00:15:11;;;;;;;5.68;2.78;;;13.10;97.90;;;;;;4912444;29;20105;-72
2022/10/27 00:17:38;;;;;;;2.88;2.60;;;13.10;97.90;;;;;;4917768;29;20447;-73
2022/10/27 00:20:04;;;;;;;3.75;2.95;;;13.20;97.60;;;;;;4913945;29;20040;-73
2022/10/27 00:22:30;;;;;;;4.78;3.42;;;13.10;97.50;;;;;;4915196;29;20058;-72
2022/10/27 00:24:56;;;;;;;4.22;2.67;;;13.10;97.30;;;;;;4911853;29;20487;-72
2022/10/27 00:27:22;;;;;;;4.75;3.33;;;13.00;97.00;;;;;;4914297;29;20024;-72
2022/10/27 00:29:48;;;;;;;5.32;2.67;;;13.10;97.00;;;;;;4914136;29;20027;-72
2022/10/27 00:32:13;;;;;;;3.00;2.60;;;13.00;96.80;;;;;;4912440;29;20065;-72
2022/10/27 00:34:39;;;;;;;3.35;2.67;;;13.00;96.70;;;;;;4913674;29;20187;-73
2022/10/27 00:37:05;;;;;;;6.30;2.85;;;12.90;96.80;;;;;;4912907;29;20047;-73
2022/10/27 00:39:30;;;;;;;3.75;2.75;;;12.90;96.90;;;;;;4914055;29;20307;-72
2022/10/27 00:41:57;;;;;;;4.78;3.10;;;12.90;97.10;;;;;;4911813;29;20043;-72
2022/10/27 00:44:41;;;;;;;6.90;2.83;;;12.90;97.20;;;;;;4916549;29;20858;-72
2022/10/27 00:47:28;;;;;;;3.50;2.47;;;12.90;97.40;;;;;;4912272;29;20106;-72
2022/10/27 00:50:00;;;;;;;2.78;2.40;;;12.90;97.70;;;;;;4913376;29;20040;-72
2022/10/27 00:52:26;;;;;;;3.08;2.47;;;12.90;97.80;;;;;;4913165;29;20040;-73
2022/10/27 00:54:55;;;;;;;5.13;3.10;;;12.90;97.90;;;;;;4914021;29;20116;-72
2022/10/27 00:57:21;;;;;;;7.60;3.03;;;12.90;98.00;;;;;;4910528;29;20043;-73
2022/10/27 00:59:47;;;;;;;3.33;2.72;;;12.90;97.90;;;;;;4913060;29;20387;-73
2022/10/27 01:02:14;;;;;;;3.78;2.80;;;12.90;97.90;;;;;;4914055;29;20126;-72
2022/10/27 01:04:59;;;;;;;4.28;2.78;;;12.90;98.00;;;;;;4915518;29;20480;-73
2022/10/27 01:07:26;;;;;;;4.18;2.85;;;12.90;98.00;;;;;;4911531;29;20024;-72
2022/10/27 01:09:52;;;;;;;3.40;2.58;;;12.90;98.10;;;;;;4912582;29;20044;-72
2022/10/27 01:12:17;;;;;;;3.60;2.30;;;12.90;98.10;;;;;;4909983;29;20024;-72
2022/10/27 01:14:43;;;;;;;3.28;2.65;;;12.90;98.20;;;;;;4914911;29;20786;-72
2022/10/27 01:17:12;;;;;;;5.25;2.85;;;12.90;98.40;;;;;;4910830;29;20054;-72
2022/10/27 01:20:03;;;;;;;6.93;3.08;;;12.90;98.40;;;;;;4914380;29;20063;-72
2022/10/27 01:22:48;;;;;;;5.85;3.25;;;12.90;98.40;;;;;;4917826;29;20035;-72
2022/10/27 01:25:51;;;;;;;2.78;2.30;;;12.90;98.40;;;;;;4914154;29;20058;-72
2022/10/27 01:28:50;;;;;;;4.20;2.65;;;12.80;98.30;;;;;;4911854;29;20028;-72
2022/10/27 01:31:25;;;;;;;3.45;2.70;;;12.80;98.30;;;;;;4914122;29;20032;-72
2022/10/27 01:34:15;;;;;;;2.78;2.35;;;12.80;98.20;;;;;;4910925;29;20070;-72
2022/10/27 01:36:53;;;;;;;6.10;2.67;;;12.80;98.20;;;;;;4913563;29;20547;-73
2022/10/27 01:39:55;;;;;;;3.20;2.85;;;12.80;98.10;;;;;;4911378;29;20032;-73
2022/10/27 01:42:34;;;;;;;3.78;2.70;;;12.80;98.30;;;;;;4913453;29;20063;-73
2022/10/27 01:45:02;;;;;;;4.18;2.65;;;12.80;98.20;;;;;;4921699;29;20040;-73
2022/10/27 01:47:30;;;;;;;4.50;2.70;;;12.70;98.00;;;;;;4914411;29;20514;-71
2022/10/27 01:49:55;;;;;;;4.30;2.53;;;12.70;98.10;;;;;;4913874;29;20047;-72
2022/10/27 01:52:42;;;;;;;6.63;2.92;;;12.70;98.10;;;;;;4914892;29;20032;-70
2022/10/27 01:55:36;;;;;;;2.83;2.35;;;12.70;98.20;;;;;;4911240;29;20048;-71
2022/10/27 01:58:14;;;;;;;4.68;2.78;;;12.70;98.20;;;;;;4914422;29;20445;-71
2022/10/27 02:01:05;;;;;;;5.88;2.83;;;12.70;98.30;;;;;;4914379;29;20028;-71
2022/10/27 02:03:46;;;;;;;4.97;3.17;;;12.80;98.30;;;;;;4906885;29;20424;-72
2022/10/27 02:06:30;;;;;;;5.15;2.95;;;12.70;98.30;;;;;;4915814;29;20553;-71
2022/10/27 02:09:02;;;;;;;4.65;3.17;;;12.80;98.50;;;;;;4917292;29;20043;-71
2022/10/27 02:11:32;;;;;;;4.43;3.47;;;12.80;98.50;;;;;;4915551;29;20517;-72
2022/10/27 02:13:59;;;;;;;4.60;3.20;;;12.80;98.60;;;;;;4914308;29;20778;-72
2022/10/27 02:16:29;;;;;;;8.77;3.17;;;12.80;98.60;;;;;;4916622;29;20143;-72
2022/10/27 02:19:17;;;;;;;7.35;3.58;;;12.80;98.70;;;;;;4915251;29;20047;-72
2022/10/27 02:21:45;;;;;;;4.75;3.30;;;12.80;98.70;;;;;;4918223;29;20040;-72
2022/10/27 02:24:11;;;;;;;4.28;2.90;;;12.80;98.80;;;;;;4919377;29;20050;-72
2022/10/27 02:26:45;;;;;;;4.10;3.03;;;12.80;98.80;;;;;;4916156;29;20024;-71
2022/10/27 02:29:20;;;;;;;4.43;3.03;;;12.90;99.00;;;;;;4917359;29;20074;-72
2022/10/27 02:31:50;;;;;;;4.30;2.95;;;12.90;99.00;;;;;;4917762;29;20031;-72
2022/10/27 02:34:17;;;;;;;5.18;2.90;;;12.90;99.00;;;;;;4916575;29;20138;-71
2022/10/27 02:36:42;;;;;;;2.83;2.40;;;12.90;98.90;;;;;;4918186;29;20027;-72
2022/10/27 02:39:08;;;;;;;4.75;3.22;;;12.90;98.70;;;;;;4917536;29;20039;-72
2022/10/27 02:41:34;;;;;;;5.18;3.15;;;12.90;98.60;;;;;;4913746;29;20040;-71
2022/10/27 02:44:01;;;;;;;6.68;3.60;;;12.80;98.50;;;;;;4914652;29;20809;-71
2022/10/27 02:46:26;;;;;;;3.15;2.70;;;12.80;98.50;;;;;;4915442;29;20139;-71
2022/10/27 02:48:52;;;;;;;5.10;2.90;;;12.80;98.60;;;;;;4916935;29;20043;-72
2022/10/27 02:51:18;;;;;;;3.33;2.97;;;12.80;98.70;;;;;;4916924;29;20027;-72
2022/10/27 02:53:43;;;;;;;4.82;3.13;;;12.80;98.70;;;;;;4917865;29;20768;-71
2022/10/27 02:56:09;;;;;;;4.57;3.17;;;12.80;98.80;;;;;;4916921;29;20048;-72
2022/10/27 02:58:35;;;;;;;4.40;2.80;;;12.80;98.80;;;;;;4916819;29;20167;-71
2022/10/27 03:01:01;;;;;;;4.80;2.88;;;12.80;98.70;;;;;;4914467;29;20415;-71
2022/10/27 03:03:27;;;;;;;4.88;2.63;;;12.80;98.50;;;;;;4915192;29;20031;-71
2022/10/27 03:05:52;;;;;;;3.72;2.80;;;12.80;98.30;;;;;;4916866;29;20159;-72
2022/10/27 03:08:18;;;;;;;7.30;2.88;;;12.80;98.10;;;;;;4912952;29;20120;-71
2022/10/27 03:10:44;;;;;;;3.75;2.75;;;12.70;97.90;;;;;;4914695;29;20123;-71
2022/10/27 03:13:10;;;;;;;4.22;2.67;;;12.70;97.70;;;;;;4918946;29;20055;-71
2022/10/27 03:15:36;;;;;;;7.07;3.03;;;12.60;97.70;;;;;;4916182;29;20716;-71
2022/10/27 03:18:02;;;;;;;6.43;3.10;;;12.60;97.70;;;;;;4913475;29;20039;-71
2022/10/27 03:20:27;;;;;;;9.13;3.17;;;12.50;97.50;;;;;;4915544;29;20492;-71
2022/10/27 03:22:53;;;;;;;7.85;3.40;;;12.50;97.50;;;;;;4914411;29;20074;-72
2022/10/27 03:25:19;;;;;;;4.60;3.35;;;12.40;97.60;;;;;;4914792;29;20396;-71
2022/10/27 03:27:45;;;;;;;6.60;2.88;;;12.40;97.90;;;;;;4915105;29;20377;-72
2022/10/27 03:30:14;;;;;;;5.65;3.40;;;12.40;98.00;;;;;;4914559;29;20039;-71
2022/10/27 03:32:43;;;;;;;8.23;3.30;;;12.40;98.00;;;;;;4918073;29;20109;-72
2022/10/27 03:35:09;;;;;;;5.43;3.25;;;12.40;98.10;;;;;;4915331;29;20039;-71
2022/10/27 03:37:35;;;;;;;5.38;3.72;;;12.40;98.20;;;;;;4917545;29;20095;-71
2022/10/27 03:40:00;;;;;;;6.30;3.35;;;12.40;98.20;;;;;;4913969;29;20042;-72
2022/10/27 03:42:26;;;;;;;6.15;3.35;;;12.40;98.20;;;;;;4912946;29;20055;-71
2022/10/27 03:44:52;;;;;;;4.82;3.50;;;12.40;98.20;;;;;;4911586;29;20048;-71
2022/10/27 03:47:17;;;;;;;7.82;3.63;;;12.30;98.20;;;;;;4915610;29;20055;-71
2022/10/27 03:49:43;;;;;;;5.60;4.07;;;12.30;98.20;;;;;;4914262;29;20102;-71
2022/10/27 03:52:09;;;;;;;5.03;4.18;;;12.30;98.20;;;;;;4913267;29;20031;-72
2022/10/27 03:54:35;;;;;;;7.50;4.28;;;12.30;98.20;;;;;;4914935;29;20024;-72
2022/10/27 03:57:00;;;;;;;6.65;4.28;;;12.30;98.30;;;;;;4914184;29;20813;-72
2022/10/27 03:59:26;;;;;;;5.70;3.78;;;12.30;98.40;;;;;;4914485;29;20123;-72
2022/10/27 04:01:52;;;;;;;6.40;3.63;;;12.30;98.60;;;;;;4913696;29;20044;-71
2022/10/27 04:04:17;;;;;;;6.05;4.53;;;12.30;98.70;;;;;;4915361;29;20035;-71
2022/10/27 04:06:43;;;;;;;7.65;3.92;;;12.30;98.90;;;;;;4913301;29;20064;-72
2022/10/27 04:09:09;;;;;;;7.40;4.03;;;12.30;99.00;;;;;;4915369;29;20035;-71
2022/10/27 04:11:34;;;;;;;4.65;3.60;;;12.40;99.10;;;;;;4912926;29;20103;-71
2022/10/27 04:14:00;;;;;;;3.85;3.15;;;12.40;99.20;;;;;;4913302;29;20120;-72
2022/10/27 04:16:26;;;;;;;5.70;4.07;;;12.40;99.30;;;;;;4913266;29;20492;-72
2022/10/27 04:18:52;;;;;;;5.60;3.60;;;12.50;99.40;;;;;;4914477;29;20039;-72
2022/10/27 04:21:17;;;;;;;5.40;4.03;;;12.50;99.40;;;;;;4911481;29;20048;-72
2022/10/27 04:23:45;;;;;;;4.82;4.07;;;12.50;99.40;;;;;;4915229;29;20036;-72
2022/10/27 04:26:10;;;;;;;6.43;3.47;;;12.50;99.40;;;;;;4915083;29;20050;-72
2022/10/27 04:28:36;;;;;;;6.68;3.72;;;12.60;99.40;;;;;;4915877;29;20047;-72
2022/10/27 04:31:02;;;;;;;4.65;3.42;;;12.60;99.40;;;;;;4916805;29;20036;-72
2022/10/27 04:33:27;;;;;;;7.50;4.18;;;12.60;99.50;;;;;;4913790;29;20023;-72
2022/10/27 04:35:53;;;;;;;3.83;3.08;;;12.60;99.40;;;;;;4912893;29;20044;-72
2022/10/27 04:38:19;;;;;;;6.88;3.78;;;12.70;99.50;;;;;;4912648;29;20099;-72
2022/10/27 04:40:45;;;;;;;4.63;3.70;;;12.70;99.50;;;;;;4912642;29;20035;-72
2022/10/27 04:43:10;;;;;;;5.05;3.63;;;12.70;99.50;;;;;;4911776;29;20155;-71
2022/10/27 04:45:36;;;;;;;6.50;3.60;;;12.60;99.50;;;;;;4914481;29;20051;-72
2022/10/27 04:48:02;;;;;;;4.85;3.50;;;12.70;99.50;;;;;;4912657;29;20059;-71
2022/10/27 04:50:28;;;;;;;5.78;3.53;;;12.70;99.40;;;;;;4914372;29;20031;-71
2022/10/27 04:53:01;;;;;;;8.32;4.20;;;12.70;99.50;;;;;;4916726;29;20514;-72
2022/10/27 04:55:29;;;;;;;5.85;3.75;;;12.70;99.50;;;;;;4919625;29;20066;-72
2022/10/27 04:57:55;;;;;;;5.70;3.85;;;12.70;99.30;;;;;;4924728;29;20111;-72
2022/10/27 05:00:21;;;;;;;7.75;4.00;;;12.70;99.30;;;;;;4920800;29;20036;-71
2022/10/27 05:02:55;;;;;;;4.20;3.72;;;12.70;99.40;;;;;;4912492;29;20115;-71
2022/10/27 05:05:21;;;;;;;6.30;3.10;;;12.70;99.40;;;;;;4918479;29;20039;-71
2022/10/27 05:07:55;;;;;;;3.42;2.80;;;12.70;99.00;;;;;;4917810;29;20039;-72
2022/10/27 05:10:21;;;;;;;4.97;3.17;;;12.60;98.60;;;;;;4918197;29;20027;-72
2022/10/27 05:12:47;;;;;;;7.22;3.05;;;12.60;98.30;;;;;;4919603;29;20078;-71
2022/10/27 05:15:13;;;;;;;5.43;2.55;;;12.50;98.20;;;;;;4919077;29;20612;-71
2022/10/27 05:17:38;;;;;;;4.63;2.92;;;12.40;98.00;;;;;;4919144;29;20043;-71
2022/10/27 05:20:04;;;;;;;4.80;2.90;;;12.40;98.00;;;;;;4917404;29;20115;-70
2022/10/27 05:22:31;;;;;;;5.75;2.85;;;12.30;97.80;;;;;;4914424;29;20403;-71
2022/10/27 05:24:57;;;;;;;6.28;2.53;;;12.30;97.40;;;;;;4920463;28;20117;-71
2022/10/27 05:27:22;;;;;;;8.60;3.25;;;12.20;97.10;;;;;;4914342;29;20120;-71
2022/10/27 05:29:48;;;;;;;6.07;2.95;;;12.20;96.70;;;;;;4917832;29;20027;-71
2022/10/27 05:32:14;;;;;;;3.35;3.03;;;12.10;96.80;;;;;;4920213;29;20039;-71
2022/10/27 05:34:40;;;;;;;5.40;3.58;;;12.00;97.10;;;;;;4918343;29;20024;-71
2022/10/27 05:37:06;;;;;;;5.80;3.70;;;11.90;97.50;;;;;;4926410;29;20059;-70
2022/10/27 05:39:32;;;;;;;6.53;4.03;;;11.90;97.80;;;;;;4925238;29;20111;-72
2022/10/27 05:41:57;;;;;;;9.07;4.25;;;12.00;98.20;;;;;;4920893;29;20633;-72
2022/10/27 05:44:23;;;;;;;5.72;4.32;;;12.00;98.60;;;;;;4925321;28;20109;-72
2022/10/27 05:46:49;;;;;;;6.50;3.95;;;12.10;98.80;;;;;;4917221;29;20063;-71
2022/10/27 05:49:15;;;;;;;4.60;3.63;;;12.10;98.90;;;;;;4918768;29;20032;-71
2022/10/27 05:51:40;;;;;;;9.25;4.30;;;12.10;99.00;;;;;;4929282;29;20023;-71
2022/10/27 05:54:06;;;;;;;5.43;3.80;;;12.10;99.00;;;;;;4919667;29;20738;-71
2022/10/27 05:56:32;;;;;;;6.03;3.47;;;12.20;98.90;;;;;;4926910;29;20056;-72
2022/10/27 05:58:57;;;;;;;9.20;4.05;;;12.20;98.90;;;;;;4920364;29;20119;-71
2022/10/27 06:01:23;;;;;;;8.25;4.35;;;12.20;98.80;;;;;;4920184;29;20135;-71
2022/10/27 06:03:49;;;;;;;6.35;3.92;;;12.20;98.80;;;;;;4924650;29;20035;-71
2022/10/27 06:06:15;;;;;;;9.45;3.90;;;12.20;98.80;;;;;;4918501;29;20801;-72
2022/10/27 06:08:40;;;;;;;6.70;4.20;;;12.20;98.90;;;;;;4926191;29;20043;-72
2022/10/27 06:11:06;;;;;;;7.15;4.53;;;12.20;99.00;;;;;;4913545;29;20579;-71
2022/10/27 06:13:32;;;;;;;5.35;3.95;;;12.20;99.00;;;;;;4918973;29;20106;-74
2022/10/27 06:15:58;;;;;;;8.35;4.40;;;12.20;99.00;;;;;;4920252;29;20035;-72
2022/10/27 06:18:23;;;;;;;5.03;3.78;;;12.30;98.90;;;;;;4921631;29;20067;-72
2022/10/27 06:20:49;;;;;;;9.20;4.22;;;12.30;98.80;;;;;;4918368;29;20036;-72
2022/10/27 06:23:15;;;;;;;4.65;4.05;;;12.30;98.80;;;;;;4918985;29;20035;-72
2022/10/27 06:25:41;;;;;;;4.00;3.60;;;12.30;98.70;;;;;;4925213;29;20027;-72
2022/10/27 06:28:07;;;;;;;11.00;4.53;;;12.30;98.80;;;;;;4922136;29;20043;-72
2022/10/27 06:30:32;;;;;;;6.45;4.10;;;12.30;98.80;;;;;;4923630;29;20020;-72
2022/10/27 06:32:58;;;;;;;5.55;4.00;;;12.30;98.80;;;;;;4928011;29;20057;-72
2022/10/27 06:35:24;;;;;;;8.77;4.80;;;12.30;99.10;;;;;;4924622;29;20484;-72
2022/10/27 06:37:50;;;;;;;6.22;4.53;;;12.40;99.30;;;;;;4922428;29;20035;-71
2022/10/27 06:40:17;;;;;;;11.48;4.55;;;12.50;99.50;;;;;;4924266;29;20047;-71
2022/10/27 06:42:45;;;;;;;11.82;5.15;;;12.60;99.60;;;;;;4906968;29;20044;-72
2022/10/27 06:45:11;;;;;;;7.85;4.97;;;12.70;99.70;;;;;;4898015;29;20040;-71
2022/10/27 06:47:37;;;;;;;7.20;5.20;;;12.80;99.70;;;;;;4899101;29;20096;-72
2022/10/27 06:50:03;;;;;;;8.15;4.80;;;12.80;99.60;;;;;;4899865;29;20135;-72
2022/10/27 06:52:29;;;;;;;6.57;4.35;;;12.90;99.60;;;;;;4899536;29;20140;-72
2022/10/27 06:54:55;;;;;;;6.85;4.35;;;12.90;99.60;;;;;;4900076;29;20043;-72
2022/10/27 06:57:20;;;;;;;7.10;4.35;;;13.00;99.90;;;;;;4901573;29;20040;-72
2022/10/27 06:59:46;;;;;;;7.13;3.55;;;13.00;99.70;;;;;;4901624;29;20457;-72
2022/10/27 07:02:13;;;;;;;4.88;3.83;;;13.10;99.80;;;;;;4897075;29;20941;-72
2022/10/27 07:04:39;;;;;;;11.80;5.22;;;13.20;99.70;;;;;;4895819;29;20064;-72
2022/10/27 07:07:05;;;;;;;7.55;5.00;;;13.20;99.60;;;;;;4903840;29;20091;-72
2022/10/27 07:09:31;;;;;;;6.32;4.25;;;13.30;99.50;;;;;;4894457;29;20036;-72
2022/10/27 07:11:56;;;;;;;8.77;4.25;;;13.30;99.40;;;;;;4896326;29;20108;-72
2022/10/27 07:14:22;;;;;;;6.85;4.70;;;13.40;99.40;;;;;;4899004;29;20036;-72
2022/10/27 07:16:48;;;;;;;10.75;5.10;;;13.40;99.40;;;;;;4902748;29;20028;-72
2022/10/27 07:19:14;;;;;;;5.57;4.35;;;13.50;99.40;;;;;;4899545;29;20385;-74
2022/10/27 07:21:40;;;;;;;4.55;3.95;;;13.50;99.40;;;;;;4896293;29;20055;-72
2022/10/27 07:24:06;;;;;;;6.10;4.07;;;13.60;99.40;;;;;;4901586;29;20055;-71
2022/10/27 07:26:32;;;;;;;4.25;3.83;;;13.60;99.50;;;;;;4904936;29;20045;-72
2022/10/27 07:28:57;;;;;;;4.88;3.67;;;13.70;99.60;;;;;;4898582;29;20047;-71
2022/10/27 07:31:23;;;;;;;6.85;4.72;;;13.80;99.70;;;;;;4896619;29;20024;-71
2022/10/27 07:33:49;;;;;;;4.90;3.80;;;13.90;99.90;;;;;;4894283;29;20059;-71
2022/10/27 07:36:14;;;;;;;9.00;4.78;;;14.00;99.70;;;;;;4898499;29;20108;-72
2022/10/27 07:38:40;;;;;;;9.18;4.28;;;14.10;99.60;;;;;;4901100;29;20858;-71
2022/10/27 07:41:06;;;;;;;6.53;4.18;;;14.20;99.30;;;;;;4895595;29;20477;-71
2022/10/27 07:43:32;;;;;;;6.28;4.63;;;14.30;99.30;;;;;;4903494;29;20036;-71
2022/10/27 07:45:57;;;;;;;6.22;3.85;;;14.40;99.40;;;;;;4892803;29;20072;-72
2022/10/27 07:48:23;;;;;;;6.38;4.13;;;14.50;99.30;;;;;;4900846;29;20034;-71
2022/10/27 07:50:50;;;;;;;6.47;4.38;;;14.60;99.20;;;;;;4892334;29;20400;-71
2022/10/27 07:53:17;;;;;;;6.20;4.25;;;14.70;99.20;;;;;;4900306;29;20051;-71
2022/10/27 07:55:43;;;;;;;6.07;4.18;;;14.80;99.10;;;;;;4896369;29;20040;-72
2022/10/27 07:58:11;;;;;;;5.70;4.43;;;14.90;99.00;;;;;;4899147;29;20068;-71
2022/10/27 08:00:39;;;;;;;7.93;4.35;;;15.00;98.90;;;;;;4900086;29;20047;-71
2022/10/27 08:03:15;;;;;;;6.28;4.28;;;15.00;98.70;;;;;;4894613;29;20060;-71
2022/10/27 08:05:41;;;;;;;8.68;4.82;;;15.10;98.60;;;;;;4900427;29;20039;-70
2022/10/27 08:08:07;;;;;;;8.50;4.32;;;15.20;98.50;;;;;;4896544;29;20556;-71
2022/10/27 08:10:36;;;;;;;5.95;3.88;;;15.20;98.40;;;;;;4899435;29;20096;-71
2022/10/27 08:13:03;;;;;;;6.85;4.22;;;15.30;98.20;;;;;;4895128;29;20028;-72
2022/10/27 08:15:29;;;;;;;6.18;3.53;;;15.40;98.10;;;;;;4895997;29;20031;-74
2022/10/27 08:17:58;;;;;;;5.90;3.50;;;15.40;98.00;;;;;;4898879;29;20061;-75
2022/10/27 08:20:24;;;;;;;6.68;3.67;;;15.50;97.90;;;;;;4895507;29;20032;-72
2022/10/27 08:22:57;;;;;;;5.07;3.22;;;15.60;97.80;;;;;;4893940;29;20125;-71
2022/10/27 08:25:24;;;;;;;6.53;3.75;;;15.60;97.80;;;;;;4898570;29;20103;-72
2022/10/27 08:27:50;;;;;;;6.45;4.20;;;15.70;97.60;;;;;;4899246;29;20876;-72
2022/10/27 08:30:15;;;;;;;11.02;4.05;;;15.80;97.60;;;;;;4901092;29;20047;-71
2022/10/27 08:32:41;;;;;;;7.45;4.07;;;15.80;97.20;;;;;;4900143;29;20043;-72
2022/10/27 08:35:08;;;;;;;10.07;3.92;;;15.90;97.10;;;;;;4893030;29;20037;-72
2022/10/27 08:37:33;;;;;;;5.45;3.47;;;16.00;97.10;;;;;;4899677;29;20032;-71
2022/10/27 08:39:59;;;;;;;5.30;3.30;;;16.00;96.70;;;;;;4899763;29;20651;-71
2022/10/27 08:42:49;;;;;;;9.52;3.85;;;16.10;96.70;;;;;;4896139;29;20039;-72
2022/10/27 08:45:44;;;;;;;8.38;3.92;;;16.30;96.70;;;;;;4909565;29;20035;-72
2022/10/27 08:48:10;;;;;;;7.35;4.10;;;16.50;96.50;;;;;;4895804;29;20041;-72
2022/10/27 08:50:42;;;;;;;7.45;3.92;;;16.80;96.00;;;;;;4894282;29;20207;-71
2022/10/27 08:53:13;;;;;;;4.88;3.15;;;17.10;95.40;;;;;;4898061;29;20044;-71
2022/10/27 08:55:55;;;;;;;6.90;3.72;;;17.20;95.10;;;;;;4900787;29;20039;-71
2022/10/27 08:58:42;;;;;;;5.85;3.33;;;17.30;94.70;;;;;;4897652;29;20032;-72
2022/10/27 09:01:08;;;;;;;8.55;3.63;;;17.50;94.10;;;;;;4898054;29;20135;-71
2022/10/27 09:03:44;;;;;;;5.28;2.83;;;17.70;93.90;;;;;;4894542;29;20040;-71
2022/10/27 09:06:23;;;;;;;5.03;2.45;;;17.90;93.80;;;;;;4896985;29;20491;-71
2022/10/27 09:08:52;;;;;;;6.05;3.15;;;18.40;93.30;;;;;;4894864;29;20032;-71
2022/10/27 09:11:38;;;;;;;6.97;3.40;;;19.20;92.00;;;;;;4891889;29;20474;-69
2022/10/27 09:14:15;;;;;;;4.95;3.17;;;20.10;89.70;;;;;;4895639;29;20119;-68
2022/10/27 09:17:02;;;;;;;9.05;3.20;;;20.90;85.60;;;;;;4895451;29;20083;-71
2022/10/27 09:19:32;;;;;;;4.78;2.85;;;21.80;80.80;;;;;;4897986;29;20044;-71
2022/10/27 09:22:04;;;;;;;6.25;2.70;;;22.30;78.70;;;;;;4896695;29;20134;-71
2022/10/27 09:24:33;;;;;;;7.88;2.60;;;22.50;77.10;;;;;;4900261;29;20074;-71
2022/10/27 09:27:01;;;;;;;6.28;2.78;;;22.70;76.70;;;;;;4892177;29;20036;-70
2022/10/27 09:29:29;;;;;;;4.57;2.33;;;23.10;75.40;;;;;;4897967;29;20032;-70
2022/10/27 09:32:25;;;;;;;4.95;2.33;;;23.50;73.80;;;;;;4891301;29;20123;-71
2022/10/27 09:35:08;;;;;;;6.25;2.47;;;23.60;72.80;;;;;;4896190;29;20040;-71
2022/10/27 09:37:39;;;;;;;5.43;2.00;;;23.60;72.60;;;;;;4897306;29;20036;-71
2022/10/27 09:40:11;;;;;;;5.28;2.22;;;23.90;71.80;;;;;;4899699;29;20095;-71
2022/10/27 09:42:37;;;;;;;3.95;1.90;;;24.40;70.30;;;;;;4891244;29;20502;-72
2022/10/27 09:45:17;;;;;;;6.75;2.35;;;24.70;68.50;;;;;;4898495;29;20462;-70
2022/10/27 09:47:46;;;;;;;4.82;2.08;;;24.40;68.40;;;;;;4891960;29;20056;-71
2022/10/27 09:50:35;;;;;;;7.43;2.35;;;24.20;69.60;;;;;;4896699;29;20067;-70
2022/10/27 09:53:02;;;;;;;3.50;1.90;;;23.90;70.10;;;;;;4893771;29;20039;-70
2022/10/27 09:55:51;;;;;;;9.88;2.38;;;23.50;71.70;;;;;;4897266;29;20055;-70
2022/10/27 09:58:18;;;;;;;8.05;2.97;;;23.00;72.40;;;;;;4895497;29;20040;-70
2022/10/27 10:00:44;;;;;;;3.25;2.05;;;22.70;74.40;;;;;;4895446;29;20971;-70
2022/10/27 10:03:20;;;;;;;6.97;2.00;;;22.70;75.00;;;;;;4891992;29;20044;-69
2022/10/27 10:06:01;;;;;;;4.43;2.00;;;22.80;75.00;;;;;;4893850;29;20093;-69
2022/10/27 10:08:29;;;;;;;6.10;2.13;;;23.00;74.70;;;;;;4895976;29;20036;-69
2022/10/27 10:11:01;;;;;;;2.47;1.58;;;23.10;74.00;;;;;;4896621;29;20064;-70
2022/10/27 10:13:36;;;;;;;6.75;1.70;;;23.10;73.60;;;;;;4899421;29;20036;-69
2022/10/27 10:16:15;;;;;;;4.85;2.00;;;23.30;72.60;;;;;;4896945;29;20051;-70
2022/10/27 10:19:00;;;;;;;4.72;1.80;;;23.40;71.40;;;;;;4893729;29;20207;-69
2022/10/27 10:21:41;;;;;;;4.30;1.98;;;23.40;71.80;;;;;;4899052;29;20039;-69
2022/10/27 10:24:26;;;;;;;10.05;1.77;;;23.50;71.20;;;;;;4901961;29;20313;-69
2022/10/27 10:26:58;;;;;;;9.40;2.15;;;23.70;71.00;;;;;;4899064;29;20047;-69
2022/10/27 10:29:33;;;;;;;4.45;1.60;;;24.00;69.70;;;;;;4901583;29;20113;-69
2022/10/27 10:32:10;;;;;;;4.18;1.95;;;24.20;68.30;;;;;;4902721;29;20044;-68
2022/10/27 10:34:37;;;;;;;3.53;1.90;;;24.50;68.70;;;;;;4901462;29;20453;-70
2022/10/27 10:37:23;;;;;;;6.38;1.90;;;25.50;65.40;;;;;;4902503;29;20044;-70
2022/10/27 10:39:48;;;;;;;8.73;1.90;;;26.40;62.70;;;;;;4901576;29;20032;-69
2022/10/27 10:42:16;;;;;;;8.50;2.53;;;27.30;59.80;;;;;;4898864;29;20055;-70
2022/10/27 10:44:43;;;;;;;4.68;1.55;;;28.20;57.30;;;;;;4898136;29;20107;-70
2022/10/27 10:47:21;;;;;;;4.45;1.77;;;29.00;54.50;;;;;;4900321;29;20657;-70
2022/10/27 10:49:53;;;;;;;7.28;2.03;;;29.70;52.90;;;;;;4899843;29;20040;-70
2022/10/27 10:52:22;;;;;;;3.67;1.50;;;30.20;50.90;;;;;;4900767;29;20039;-74
2022/10/27 10:54:48;;;;;;;6.68;1.90;;;30.40;50.60;;;;;;4899115;29;20067;-71
2022/10/27 10:57:35;;;;;;;8.70;1.70;;;30.60;49.50;;;;;;4899961;29;20071;-69
2022/10/27 11:00:04;;;;;;;6.78;2.00;;;29.20;50.90;;;;;;4893147;29;20032;-70
2022/10/27 11:02:31;;;;;;;7.82;2.30;;;26.90;56.00;;;;;;4897563;29;20496;-72
2022/10/27 11:05:13;;;;;;;5.25;2.45;;;25.10;60.20;;;;;;4900674;29;20575;-72
2022/10/27 11:07:39;;;;;;;4.38;2.10;;;23.90;65.00;;;;;;4895916;29;20040;-72
2022/10/27 11:10:21;;;;;;;5.93;2.10;;;23.10;67.80;;;;;;4894542;29;20032;-71
2022/10/27 11:13:10;;;;;;;5.35;2.75;;;22.50;70.50;;;;;;4895179;29;20086;-71
2022/10/27 11:15:43;;;;;;;7.55;2.17;;;22.20;71.70;;;;;;4897758;29;20493;-70
2022/10/27 11:18:17;;;;;;;5.40;1.90;;;21.80;72.20;;;;;;4895604;29;20115;-71
2022/10/27 11:20:46;;;;;;;4.90;1.90;;;21.70;73.40;;;;;;4899631;29;20031;-71
2022/10/27 11:23:51;;;;;;;4.57;2.22;;;21.70;74.50;;;;;;4896752;29;20155;-71
2022/10/27 11:26:21;;;;;;;6.50;2.63;;;21.70;74.60;;;;;;4900673;29;20511;-71
2022/10/27 11:29:20;;;;;;;5.43;2.50;;;21.70;74.50;;;;;;4894477;29;20055;-73
2022/10/27 11:31:55;;;;;;;6.22;2.50;;;21.60;74.60;;;;;;4899999;29;20063;-72
2022/10/27 11:34:57;;;;;;;5.23;2.50;;;21.60;75.10;;;;;;4894634;29;20029;-72
2022/10/27 11:37:45;;;;;;;8.82;2.72;;;21.50;75.60;;;;;;4898411;29;20056;-72
2022/10/27 11:40:10;;;;;;;3.13;1.98;;;21.60;75.80;;;;;;4898606;29;20682;-72
2022/10/27 11:42:59;;;;;;;9.15;3.00;;;21.60;76.10;;;;;;4898800;29;20027;-72
2022/10/27 11:45:54;;;;;;;4.72;2.20;;;21.60;76.40;;;;;;4894353;29;20025;-72
2022/10/27 11:48:28;;;;;;;5.05;2.97;;;21.70;75.70;;;;;;4898172;29;20124;-71
2022/10/27 11:51:07;;;;;;;4.70;1.98;;;21.70;75.50;;;;;;4895431;29;20036;-72
2022/10/27 11:53:33;;;;;;;5.82;3.08;;;21.70;75.70;;;;;;4900359;29;20508;-71
2022/10/27 11:56:17;;;;;;;6.05;2.70;;;21.60;76.40;;;;;;4897287;29;20037;-72
2022/10/27 11:58:51;;;;;;;4.22;2.78;;;21.60;76.60;;;;;;4893207;29;20028;-72
2022/10/27 12:01:32;;;;;;;4.93;2.58;;;21.70;77.00;;;;;;4897457;29;20115;-71
2022/10/27 12:04:12;;;;;;;7.18;3.00;;;21.60;76.40;;;;;;4896306;29;20035;-72
2022/10/27 12:06:44;;;;;;;6.13;2.60;;;21.60;75.90;;;;;;4898140;29;20044;-72
2022/10/27 12:09:21;;;;;;;5.53;2.70;;;21.60;76.10;;;;;;4898152;29;20036;-72
2022/10/27 12:11:51;;;;;;;4.47;2.38;;;21.60;76.30;;;;;;4895701;29;20119;-72
2022/10/27 12:14:41;;;;;;;5.50;3.10;;;21.60;76.70;;;;;;4895221;29;20043;-72
2022/10/27 12:17:17;;;;;;;6.47;3.00;;;21.60;76.40;;;;;;4894285;29;20048;-72
2022/10/27 12:19:46;;;;;;;12.15;2.80;;;21.60;76.60;;;;;;4899432;29;20067;-72
2022/10/27 12:22:25;;;;;;;6.93;2.42;;;21.70;76.30;;;;;;4895735;29;20495;-75
2022/10/27 12:25:08;;;;;;;8.70;2.80;;;21.70;76.50;;;;;;4895651;29;20047;-76
2022/10/27 12:27:40;;;;;;;7.18;2.15;;;21.60;76.40;;;;;;4898992;29;20257;-75
2022/10/27 12:30:16;;;;;;;6.97;2.90;;;21.60;77.00;;;;;;4892665;29;20042;-77
2022/10/27 12:32:48;;;;;;;5.45;2.13;;;21.60;78.50;;;;;;4897204;29;20039;-76
2022/10/27 12:35:28;;;;;;;4.95;1.85;;;21.50;77.90;;;;;;4898249;29;20040;-78
2022/10/27 12:38:07;;;;;;;7.22;2.75;;;21.60;76.80;;;;;;4896493;29;20040;-72
2022/10/27 12:40:37;;;;;;;6.15;1.80;;;21.60;77.50;;;;;;4892969;29;20678;-72
2022/10/27 12:43:32;;;;;;;5.68;2.50;;;21.70;76.80;;;;;;4897626;29;20456;-72
2022/10/27 12:46:13;;;;;;;6.75;3.13;;;21.60;76.30;;;;;;4908181;29;20504;-72
2022/10/27 12:49:16;;;;;;;4.45;2.17;;;21.50;76.50;;;;;;4898493;29;20111;-71
2022/10/27 12:52:04;;;;;;;5.85;3.55;;;21.60;76.90;;;;;;4896831;29;20032;-72
2022/10/27 12:55:07;;;;;;;4.97;2.40;;;21.60;77.60;;;;;;4902047;29;20032;-72
2022/10/27 12:58:01;;;;;;;4.25;2.03;;;21.70;76.70;;;;;;4893733;29;20036;-71
2022/10/27 13:00:30;;;;;;;8.32;2.10;;;21.70;76.30;;;;;;4895890;29;20581;-71
2022/10/27 13:03:05;;;;;;;3.53;1.73;;;21.80;74.80;;;;;;4894892;29;20840;-71
2022/10/27 13:06:05;;;;;;;5.97;4.30;;;21.70;75.00;;;;;;4893942;29;20123;-71